sensor_id;sensor_type;location;lat;lon;timestamp;pressure;altitude;pressure_sealevel;temperature;humidity
52249;BME280;38541;48.130;8.378;2023-05-24T00:01:52;92961.56;;;13.33;69.36
52249;BME280;38541;48.130;8.378;2023-05-24T00:04:22;92958.66;;;13.35;69.24
52249;BME280;38541;48.130;8.378;2023-05-24T00:06:50;92964.25;;;13.28;69.12
52249;BME280;38541;48.130;8.378;2023-05-24T00:09:20;92952.16;;;13.22;68.90
52249;BME280;38541;48.130;8.378;2023-05-24T00:11:47;92956.88;;;13.25;69.33
52249;BME280;38541;48.130;8.378;2023-05-24T00:14:13;92955.28;;;13.29;69.22
52249;BME280;38541;48.130;8.378;2023-05-24T00:16:40;92945.84;;;13.18;68.78
52249;BME280;38541;48.130;8.378;2023-05-24T00:19:07;92947.69;;;13.17;69.13
52249;BME280;38541;48.130;8.378;2023-05-24T00:21:36;92949.06;;;13.09;69.21
52249;BME280;38541;48.130;8.378;2023-05-24T00:24:03;92953.78;;;13.12;69.10
52249;BME280;38541;48.130;8.378;2023-05-24T00:26:29;92951.13;;;13.12;69.08
52249;BME280;38541;48.130;8.378;2023-05-24T00:28:59;92949.41;;;12.87;69.57
52249;BME280;38541;48.130;8.378;2023-05-24T00:31:26;92948.16;;;12.79;70.56
52249;BME280;38541;48.130;8.378;2023-05-24T00:33:52;92956.25;;;12.88;70.21
52249;BME280;38541;48.130;8.378;2023-05-24T00:36:19;92952.03;;;12.92;70.19
52249;BME280;38541;48.130;8.378;2023-05-24T00:38:46;92954.69;;;12.87;70.28
52249;BME280;38541;48.130;8.378;2023-05-24T00:41:14;92960.28;;;12.80;70.44
52249;BME280;38541;48.130;8.378;2023-05-24T00:43:41;92948.13;;;12.84;70.46
52249;BME280;38541;48.130;8.378;2023-05-24T00:46:21;92945.47;;;12.90;70.30
52249;BME280;38541;48.130;8.378;2023-05-24T00:48:53;92942.31;;;12.88;70.13
52249;BME280;38541;48.130;8.378;2023-05-24T00:51:19;92946.03;;;12.81;70.00
52249;BME280;38541;48.130;8.378;2023-05-24T00:53:47;92940.25;;;12.74;70.13
52249;BME280;38541;48.130;8.378;2023-05-24T00:56:15;92944.47;;;12.80;70.39
52249;BME280;38541;48.130;8.378;2023-05-24T00:58:43;92937.13;;;12.67;70.36
52249;BME280;38541;48.130;8.378;2023-05-24T01:01:10;92940.53;;;12.67;70.55
52249;BME280;38541;48.130;8.378;2023-05-24T01:03:37;92940.28;;;12.69;70.76
52249;BME280;38541;48.130;8.378;2023-05-24T01:06:06;92945.03;;;12.67;70.47
52249;BME280;38541;48.130;8.378;2023-05-24T01:08:41;92954.00;;;12.55;70.62
52249;BME280;38541;48.130;8.378;2023-05-24T01:11:28;92950.28;;;12.67;70.64
52249;BME280;38541;48.130;8.378;2023-05-24T01:19:55;92946.06;;;12.71;70.79
52249;BME280;38541;48.130;8.378;2023-05-24T01:25:48;92945.03;;;12.67;70.65
52249;BME280;38541;48.130;8.378;2023-05-24T01:28:16;92942.91;;;12.69;70.59
52249;BME280;38541;48.130;8.378;2023-05-24T01:30:43;92944.50;;;12.65;70.04
52249;BME280;38541;48.130;8.378;2023-05-24T01:33:10;92944.00;;;12.52;70.47
52249;BME280;38541;48.130;8.378;2023-05-24T01:35:38;92943.75;;;12.54;70.51
52249;BME280;38541;48.130;8.378;2023-05-24T01:38:07;92932.69;;;12.52;70.06
52249;BME280;38541;48.130;8.378;2023-05-24T01:40:34;92936.09;;;12.52;70.38
52249;BME280;38541;48.130;8.378;2023-05-24T01:43:06;92932.97;;;12.45;70.52
52249;BME280;38541;48.130;8.378;2023-05-24T01:48:30;92943.00;;;12.43;71.02
52249;BME280;38541;48.130;8.378;2023-05-24T01:51:00;92941.41;;;12.47;70.97
52249;BME280;38541;48.130;8.378;2023-05-24T01:53:35;92942.19;;;12.48;70.73
52249;BME280;38541;48.130;8.378;2023-05-24T01:56:05;92939.03;;;12.51;70.94
52249;BME280;38541;48.130;8.378;2023-05-24T01:58:32;92937.13;;;12.56;70.58
52249;BME280;38541;48.130;8.378;2023-05-24T02:01:00;92931.91;;;12.51;71.02
52249;BME280;38541;48.130;8.378;2023-05-24T02:03:28;92933.72;;;12.56;70.45
52249;BME280;38541;48.130;8.378;2023-05-24T02:05:54;92939.81;;;12.51;70.08
52249;BME280;38541;48.130;8.378;2023-05-24T02:08:21;92933.53;;;12.42;70.82
52249;BME280;38541;48.130;8.378;2023-05-24T02:10:48;92930.34;;;12.40;70.79
52249;BME280;38541;48.130;8.378;2023-05-24T02:13:16;92938.00;;;12.36;70.91
52249;BME280;38541;48.130;8.378;2023-05-24T02:15:44;92934.56;;;12.41;71.09
52249;BME280;38541;48.130;8.378;2023-05-24T02:18:13;92928.28;;;12.32;71.09
52249;BME280;38541;48.130;8.378;2023-05-24T02:20:40;92925.63;;;12.32;71.11
52249;BME280;38541;48.130;8.378;2023-05-24T02:23:07;92926.19;;;12.29;71.35
52249;BME280;38541;48.130;8.378;2023-05-24T02:25:35;92930.38;;;12.30;71.06
52249;BME280;38541;48.130;8.378;2023-05-24T02:28:02;92924.06;;;12.31;70.92
52249;BME280;38541;48.130;8.378;2023-05-24T02:30:28;92919.31;;;12.27;70.88
52249;BME280;38541;48.130;8.378;2023-05-24T02:32:55;92923.53;;;12.34;70.67
52249;BME280;38541;48.130;8.378;2023-05-24T02:35:22;92913.28;;;12.22;70.45
52249;BME280;38541;48.130;8.378;2023-05-24T02:37:49;92910.13;;;12.09;71.02
52249;BME280;38541;48.130;8.378;2023-05-24T02:40:15;92920.13;;;11.92;71.20
52249;BME280;38541;48.130;8.378;2023-05-24T02:42:42;92913.03;;;11.82;71.01
52249;BME280;38541;48.130;8.378;2023-05-24T02:45:09;92908.31;;;11.79;72.02
52249;BME280;38541;48.130;8.378;2023-05-24T02:47:35;92908.31;;;11.79;71.59
52249;BME280;38541;48.130;8.378;2023-05-24T02:50:02;92916.50;;;11.77;72.13
52249;BME280;38541;48.130;8.378;2023-05-24T02:52:29;92916.22;;;11.89;71.59
52249;BME280;38541;48.130;8.378;2023-05-24T02:54:56;92921.22;;;12.01;71.65
52249;BME280;38541;48.130;8.378;2023-05-24T02:57:23;92923.03;;;12.01;71.20
52249;BME280;38541;48.130;8.378;2023-05-24T02:59:49;92908.31;;;11.94;71.33
52249;BME280;38541;48.130;8.378;2023-05-24T03:02:16;92912.53;;;11.90;70.92
52249;BME280;38541;48.130;8.378;2023-05-24T03:04:44;92909.38;;;11.88;71.12
52249;BME280;38541;48.130;8.378;2023-05-24T03:07:12;92918.06;;;11.83;71.18
52249;BME280;38541;48.130;8.378;2023-05-24T03:10:04;92908.84;;;11.81;70.58
52249;BME280;38541;48.130;8.378;2023-05-24T03:12:31;92912.53;;;11.64;71.56
52249;BME280;38541;48.130;8.378;2023-05-24T03:14:57;92914.13;;;11.60;71.59
52249;BME280;38541;48.130;8.378;2023-05-24T03:17:24;92912.00;;;11.62;71.94
52249;BME280;38541;48.130;8.378;2023-05-24T03:19:51;92907.00;;;11.66;71.76
52249;BME280;38541;48.130;8.378;2023-05-24T03:22:18;92919.13;;;11.67;71.54
52249;BME280;38541;48.130;8.378;2023-05-24T03:24:45;92915.94;;;11.54;71.63
52249;BME280;38541;48.130;8.378;2023-05-24T03:27:13;92917.81;;;11.54;71.31
52249;BME280;38541;48.130;8.378;2023-05-24T03:29:39;92920.94;;;11.40;71.69
52249;BME280;38541;48.130;8.378;2023-05-24T03:32:06;92917.00;;;11.48;72.34
52249;BME280;38541;48.130;8.378;2023-05-24T03:34:32;92920.16;;;11.50;72.20
52249;BME280;38541;48.130;8.378;2023-05-24T03:36:59;92920.94;;;11.46;72.00
52249;BME280;38541;48.130;8.378;2023-05-24T03:39:26;92917.25;;;11.26;72.01
52249;BME280;38541;48.130;8.378;2023-05-24T03:41:58;92925.41;;;11.24;72.41
52249;BME280;38541;48.130;8.378;2023-05-24T03:44:25;92921.97;;;11.24;72.41
52249;BME280;38541;48.130;8.378;2023-05-24T03:46:51;92916.75;;;11.29;72.21
52249;BME280;38541;48.130;8.378;2023-05-24T03:49:18;92930.16;;;11.27;71.96
52249;BME280;38541;48.130;8.378;2023-05-24T03:51:44;92923.59;;;11.35;71.82
52249;BME280;38541;48.130;8.378;2023-05-24T03:54:11;92923.06;;;11.38;71.63
52249;BME280;38541;48.130;8.378;2023-05-24T03:56:41;92925.69;;;11.33;71.45
52249;BME280;38541;48.130;8.378;2023-05-24T03:59:07;92929.38;;;11.37;71.74
52249;BME280;38541;48.130;8.378;2023-05-24T04:01:34;92937.50;;;11.31;71.84
52249;BME280;38541;48.130;8.378;2023-05-24T04:04:02;92937.75;;;11.13;71.71
52249;BME280;38541;48.130;8.378;2023-05-24T04:06:29;92939.06;;;11.11;71.47
52249;BME280;38541;48.130;8.378;2023-05-24T04:08:59;92941.97;;;11.15;71.66
52249;BME280;38541;48.130;8.378;2023-05-24T04:11:28;92938.31;;;11.31;71.24
52249;BME280;38541;48.130;8.378;2023-05-24T04:13:56;92938.84;;;11.28;70.51
52249;BME280;38541;48.130;8.378;2023-05-24T04:16:23;92943.03;;;11.24;70.64
52249;BME280;38541;48.130;8.378;2023-05-24T04:18:50;92940.41;;;11.29;70.31
52249;BME280;38541;48.130;8.378;2023-05-24T04:21:17;92939.38;;;11.30;70.81
52249;BME280;38541;48.130;8.378;2023-05-24T04:23:44;92942.53;;;11.37;70.21
52249;BME280;38541;48.130;8.378;2023-05-24T04:26:12;92941.19;;;11.30;70.47
52249;BME280;38541;48.130;8.378;2023-05-24T04:28:38;92943.03;;;11.24;69.64
52249;BME280;38541;48.130;8.378;2023-05-24T04:31:06;92935.38;;;11.12;70.01
52249;BME280;38541;48.130;8.378;2023-05-24T04:33:35;92932.25;;;11.20;70.28
52249;BME280;38541;48.130;8.378;2023-05-24T04:36:02;92936.75;;;11.30;69.52
52249;BME280;38541;48.130;8.378;2023-05-24T04:38:28;92934.59;;;11.22;69.48
52249;BME280;38541;48.130;8.378;2023-05-24T04:40:57;92937.75;;;11.13;68.72
52249;BME280;38541;48.130;8.378;2023-05-24T04:43:25;92937.50;;;11.20;69.62
52249;BME280;38541;48.130;8.378;2023-05-24T04:45:52;92938.56;;;11.35;69.52
52249;BME280;38541;48.130;8.378;2023-05-24T04:48:20;92926.47;;;11.34;68.17
52249;BME280;38541;48.130;8.378;2023-05-24T04:50:50;92927.00;;;11.20;69.14
52249;BME280;38541;48.130;8.378;2023-05-24T04:53:18;92929.09;;;11.28;69.23
52249;BME280;38541;48.130;8.378;2023-05-24T04:55:46;92929.09;;;11.23;68.62
52249;BME280;38541;48.130;8.378;2023-05-24T04:58:13;92934.09;;;11.20;68.59
52249;BME280;38541;48.130;8.378;2023-05-24T05:00:39;92937.50;;;11.25;68.64
52249;BME280;38541;48.130;8.378;2023-05-24T05:03:06;92932.50;;;11.24;68.38
52249;BME280;38541;48.130;8.378;2023-05-24T05:05:34;92936.22;;;11.33;68.57
52249;BME280;38541;48.130;8.378;2023-05-24T05:08:01;92939.09;;;11.32;68.53
52249;BME280;38541;48.130;8.378;2023-05-24T05:10:28;92922.00;;;11.29;68.33
52249;BME280;38541;48.130;8.378;2023-05-24T05:12:55;92924.34;;;11.36;68.25
52249;BME280;38541;48.130;8.378;2023-05-24T05:15:22;92927.28;;;11.29;68.23
52249;BME280;38541;48.130;8.378;2023-05-24T05:17:49;92922.50;;;11.26;68.75
52249;BME280;38541;48.130;8.378;2023-05-24T05:20:16;92919.38;;;11.29;68.68
52249;BME280;38541;48.130;8.378;2023-05-24T05:22:47;92926.47;;;11.34;68.30
52249;BME280;38541;48.130;8.378;2023-05-24T05:25:14;92922.28;;;11.38;68.34
52249;BME280;38541;48.130;8.378;2023-05-24T05:27:40;92929.38;;;11.42;67.84
52249;BME280;38541;48.130;8.378;2023-05-24T05:30:07;92932.53;;;11.29;67.47
52249;BME280;38541;48.130;8.378;2023-05-24T05:32:35;92937.78;;;11.39;67.93
52249;BME280;38541;48.130;8.378;2023-05-24T05:35:02;92934.63;;;11.42;67.79
52249;BME280;38541;48.130;8.378;2023-05-24T05:37:28;92944.06;;;11.18;67.44
52249;BME280;38541;48.130;8.378;2023-05-24T05:39:56;92944.63;;;11.35;68.72
52249;BME280;38541;48.130;8.378;2023-05-24T05:42:22;92934.91;;;11.51;67.71
52249;BME280;38541;48.130;8.378;2023-05-24T05:44:49;92935.69;;;11.41;67.01
52249;BME280;38541;48.130;8.378;2023-05-24T05:47:15;92939.63;;;11.49;67.31
52249;BME280;38541;48.130;8.378;2023-05-24T05:49:42;92938.34;;;11.52;67.32
52249;BME280;38541;48.130;8.378;2023-05-24T05:52:08;92943.31;;;11.48;67.45
52249;BME280;38541;48.130;8.378;2023-05-24T05:54:35;92944.13;;;11.59;66.88
52249;BME280;38541;48.130;8.378;2023-05-24T05:57:01;92944.13;;;11.69;66.65
52249;BME280;38541;48.130;8.378;2023-05-24T05:59:28;92944.66;;;11.66;65.95
52249;BME280;38541;48.130;8.378;2023-05-24T06:01:54;92939.09;;;11.52;65.78
52249;BME280;38541;48.130;8.378;2023-05-24T06:04:21;92944.13;;;11.59;66.19
52249;BME280;38541;48.130;8.378;2023-05-24T06:06:47;92940.97;;;11.73;65.96
52249;BME280;38541;48.130;8.378;2023-05-24T06:09:15;92936.75;;;11.72;65.11
52249;BME280;38541;48.130;8.378;2023-05-24T06:11:42;92943.06;;;11.86;65.60
52249;BME280;38541;48.130;8.378;2023-05-24T06:14:11;92944.91;;;11.85;65.27
52249;BME280;38541;48.130;8.378;2023-05-24T06:16:38;92943.06;;;11.91;65.11
52249;BME280;38541;48.130;8.378;2023-05-24T06:19:08;92949.09;;;11.92;65.13
52249;BME280;38541;48.130;8.378;2023-05-24T06:21:35;92951.75;;;11.66;64.73
52249;BME280;38541;48.130;8.378;2023-05-24T06:24:03;92954.38;;;11.66;65.37
52249;BME280;38541;48.130;8.378;2023-05-24T06:26:29;92950.97;;;11.70;65.39
52249;BME280;38541;48.130;8.378;2023-05-24T06:28:56;92956.75;;;11.88;65.12
52249;BME280;38541;48.130;8.378;2023-05-24T06:31:22;92957.00;;;11.87;64.74
52249;BME280;38541;48.130;8.378;2023-05-24T06:33:49;92959.94;;;11.85;64.35
52249;BME280;38541;48.130;8.378;2023-05-24T06:36:28;92957.00;;;11.92;64.76
52249;BME280;38541;48.130;8.378;2023-05-24T06:38:55;92952.28;;;11.83;64.29
52249;BME280;38541;48.130;8.378;2023-05-24T06:41:21;92962.53;;;12.01;64.46
52249;BME280;38541;48.130;8.378;2023-05-24T06:43:48;92959.66;;;11.97;64.17
52249;BME280;38541;48.130;8.378;2023-05-24T06:46:14;92971.75;;;11.88;64.58
52249;BME280;38541;48.130;8.378;2023-05-24T06:48:41;92970.97;;;11.77;64.09
52249;BME280;38541;48.130;8.378;2023-05-24T06:51:08;92973.84;;;11.65;64.14
52249;BME280;38541;48.130;8.378;2023-05-24T06:53:35;92971.75;;;11.67;65.21
52249;BME280;38541;48.130;8.378;2023-05-24T06:56:01;92970.97;;;11.66;65.46
52249;BME280;38541;48.130;8.378;2023-05-24T06:58:28;92986.50;;;11.63;65.23
52249;BME280;38541;48.130;8.378;2023-05-24T07:00:54;92982.53;;;11.65;64.25
52249;BME280;38541;48.130;8.378;2023-05-24T07:03:21;92975.72;;;11.90;65.16
52249;BME280;38541;48.130;8.378;2023-05-24T07:05:48;92978.34;;;12.16;64.53
52249;BME280;38541;48.130;8.378;2023-05-24T07:08:15;92980.41;;;12.45;63.40
52249;BME280;38541;48.130;8.378;2023-05-24T07:10:41;92985.09;;;12.59;63.06
52249;BME280;38541;48.130;8.378;2023-05-24T07:13:09;92982.97;;;12.71;62.45
52249;BME280;38541;48.130;8.378;2023-05-24T07:15:41;92982.81;;;12.36;61.32
52249;BME280;38541;48.130;8.378;2023-05-24T07:18:08;92980.19;;;12.16;63.25
52249;BME280;38541;48.130;8.378;2023-05-24T07:20:34;92977.00;;;12.29;64.07
52249;BME280;38541;48.130;8.378;2023-05-24T07:23:01;92978.84;;;12.34;62.49
52249;BME280;38541;48.130;8.378;2023-05-24T07:25:29;92982.28;;;12.34;63.10
52249;BME280;38541;48.130;8.378;2023-05-24T07:27:56;92979.84;;;12.53;62.94
52249;BME280;38541;48.130;8.378;2023-05-24T07:30:23;92977.94;;;12.69;62.32
52249;BME280;38541;48.130;8.378;2023-05-24T07:32:56;92978.50;;;12.72;62.78
52249;BME280;38541;48.130;8.378;2023-05-24T07:35:22;92986.94;;;12.63;61.91
52249;BME280;38541;48.130;8.378;2023-05-24T07:37:49;92993.06;;;12.48;61.80
52249;BME280;38541;48.130;8.378;2023-05-24T07:40:16;92991.97;;;12.54;62.32
52249;BME280;38541;48.130;8.378;2023-05-24T07:42:42;92997.50;;;12.58;61.74
52249;BME280;38541;48.130;8.378;2023-05-24T07:45:09;93004.59;;;12.58;62.64
52249;BME280;38541;48.130;8.378;2023-05-24T07:47:36;92993.22;;;12.78;61.56
52249;BME280;38541;48.130;8.378;2023-05-24T07:50:03;92989.19;;;13.01;61.71
52249;BME280;38541;48.130;8.378;2023-05-24T07:52:29;92998.75;;;12.81;61.42
52249;BME280;38541;48.130;8.378;2023-05-24T07:54:56;93013.00;;;12.75;61.70
52249;BME280;38541;48.130;8.378;2023-05-24T07:57:23;93006.09;;;12.90;60.93
52249;BME280;38541;48.130;8.378;2023-05-24T07:59:50;93012.47;;;12.83;61.08
52249;BME280;38541;48.130;8.378;2023-05-24T08:02:16;93004.56;;;12.73;61.63
52249;BME280;38541;48.130;8.378;2023-05-24T08:04:43;93002.75;;;12.74;61.97
52249;BME280;38541;48.130;8.378;2023-05-24T08:07:11;93010.38;;;12.75;61.89
52249;BME280;38541;48.130;8.378;2023-05-24T08:09:38;93001.16;;;12.73;61.47
52249;BME280;38541;48.130;8.378;2023-05-24T08:12:06;93008.50;;;12.81;62.08
52249;BME280;38541;48.130;8.378;2023-05-24T08:14:33;93005.81;;;12.96;61.83
52249;BME280;38541;48.130;8.378;2023-05-24T08:17:00;92993.84;;;13.20;61.48
52249;BME280;38541;48.130;8.378;2023-05-24T08:19:27;92994.34;;;13.27;60.80
52249;BME280;38541;48.130;8.378;2023-05-24T08:21:54;92990.47;;;13.09;60.13
52249;BME280;38541;48.130;8.378;2023-05-24T08:24:22;92987.53;;;13.16;60.70
52249;BME280;38541;48.130;8.378;2023-05-24T08:26:49;92991.22;;;13.20;60.54
52249;BME280;38541;48.130;8.378;2023-05-24T08:29:17;92997.44;;;13.45;60.63
52249;BME280;38541;48.130;8.378;2023-05-24T08:31:43;92995.31;;;13.41;59.66
52249;BME280;38541;48.130;8.378;2023-05-24T08:34:10;92998.00;;;13.36;59.56
52249;BME280;38541;48.130;8.378;2023-05-24T08:36:38;92999.53;;;13.43;59.57
52249;BME280;38541;48.130;8.378;2023-05-24T08:39:04;93004.81;;;13.48;59.73
52249;BME280;38541;48.130;8.378;2023-05-24T08:41:31;93009.06;;;13.44;59.34
52249;BME280;38541;48.130;8.378;2023-05-24T08:44:05;93009.13;;;13.23;60.20
52249;BME280;38541;48.130;8.378;2023-05-24T08:46:36;93011.78;;;13.23;60.02
52249;BME280;38541;48.130;8.378;2023-05-24T08:49:04;93007.28;;;13.29;60.11
52249;BME280;38541;48.130;8.378;2023-05-24T08:51:31;93004.94;;;13.22;59.96
52249;BME280;38541;48.130;8.378;2023-05-24T08:53:58;93002.66;;;12.94;59.47
52249;BME280;38541;48.130;8.378;2023-05-24T08:56:26;92999.25;;;12.89;60.46
52249;BME280;38541;48.130;8.378;2023-05-24T08:58:54;93004.53;;;12.89;60.80
52249;BME280;38541;48.130;8.378;2023-05-24T09:01:23;93005.63;;;12.72;60.60
52249;BME280;38541;48.130;8.378;2023-05-24T09:03:50;93003.59;;;12.43;60.60
52249;BME280;38541;48.130;8.378;2023-05-24T09:06:17;93010.69;;;12.58;61.47
52249;BME280;38541;48.130;8.378;2023-05-24T09:08:44;93009.91;;;12.52;61.82
52249;BME280;38541;48.130;8.378;2023-05-24T09:11:14;93012.28;;;12.49;61.23
52249;BME280;38541;48.130;8.378;2023-05-24T09:13:43;93013.09;;;12.44;60.88
52249;BME280;38541;48.130;8.378;2023-05-24T09:16:10;93016.25;;;12.36;61.53
52249;BME280;38541;48.130;8.378;2023-05-24T09:18:39;93016.78;;;12.38;62.02
52249;BME280;38541;48.130;8.378;2023-05-24T09:21:06;93022.56;;;12.35;61.43
52249;BME280;38541;48.130;8.378;2023-05-24T09:23:34;93018.91;;;12.31;62.79
52249;BME280;38541;48.130;8.378;2023-05-24T09:26:06;93028.38;;;12.21;62.39
52249;BME280;38541;48.130;8.378;2023-05-24T09:28:33;93022.59;;;12.24;62.15
52249;BME280;38541;48.130;8.378;2023-05-24T09:31:01;93023.91;;;12.11;62.77
52249;BME280;38541;48.130;8.378;2023-05-24T09:33:33;93027.34;;;12.12;61.65
52249;BME280;38541;48.130;8.378;2023-05-24T09:36:02;93032.31;;;11.93;62.21
52249;BME280;38541;48.130;8.378;2023-05-24T09:38:29;93034.19;;;12.13;63.21
52249;BME280;38541;48.130;8.378;2023-05-24T09:41:03;93035.72;;;11.98;61.61
52249;BME280;38541;48.130;8.378;2023-05-24T09:43:31;93039.44;;;12.29;62.65
52249;BME280;38541;48.130;8.378;2023-05-24T09:45:58;93035.47;;;12.47;61.61
52249;BME280;38541;48.130;8.378;2023-05-24T09:48:25;93032.53;;;12.59;61.30
52249;BME280;38541;48.130;8.378;2023-05-24T09:51:04;93045.47;;;12.60;61.52
52249;BME280;38541;48.130;8.378;2023-05-24T09:53:33;93037.31;;;12.62;60.59
52249;BME280;38541;48.130;8.378;2023-05-24T09:56:02;93039.13;;;12.66;60.51
52249;BME280;38541;48.130;8.378;2023-05-24T09:58:30;93035.19;;;12.59;60.92
52249;BME280;38541;48.130;8.378;2023-05-24T10:01:06;93036.53;;;12.40;60.41
52249;BME280;38541;48.130;8.378;2023-05-24T10:03:34;93041.00;;;12.50;61.50
52249;BME280;38541;48.130;8.378;2023-05-24T10:06:02;93043.63;;;12.50;59.94
52249;BME280;38541;48.130;8.378;2023-05-24T10:08:35;93041.00;;;12.61;60.06
52249;BME280;38541;48.130;8.378;2023-05-24T10:11:04;93033.56;;;12.73;59.72
52249;BME280;38541;48.130;8.378;2023-05-24T10:13:31;93035.69;;;12.81;59.24
52249;BME280;38541;48.130;8.378;2023-05-24T10:16:04;93035.63;;;12.92;58.96
52249;BME280;38541;48.130;8.378;2023-05-24T10:18:31;93031.94;;;12.93;58.60
52249;BME280;38541;48.130;8.378;2023-05-24T10:20:58;93029.81;;;12.95;58.79
52249;BME280;38541;48.130;8.378;2023-05-24T10:23:30;93031.97;;;12.77;59.13
52249;BME280;38541;48.130;8.378;2023-05-24T10:26:06;93036.19;;;12.78;58.25
52249;BME280;38541;48.130;8.378;2023-05-24T10:28:37;93034.81;;;13.02;58.88
52249;BME280;38541;48.130;8.378;2023-05-24T10:31:11;93035.31;;;13.04;58.22
52249;BME280;38541;48.130;8.378;2023-05-24T10:33:39;93028.16;;;13.15;57.63
52249;BME280;38541;48.130;8.378;2023-05-24T10:36:09;93034.97;;;13.26;56.91
52249;BME280;38541;48.130;8.378;2023-05-24T10:38:38;93033.13;;;13.26;56.67
52249;BME280;38541;48.130;8.378;2023-05-24T10:41:06;93035.78;;;13.26;56.58
52249;BME280;38541;48.130;8.378;2023-05-24T10:43:34;93030.97;;;13.34;56.34
52249;BME280;38541;48.130;8.378;2023-05-24T10:46:04;93030.50;;;13.26;56.77
52249;BME280;38541;48.130;8.378;2023-05-24T10:48:37;93033.47;;;13.09;57.22
52249;BME280;38541;48.130;8.378;2023-05-24T10:51:35;93033.69;;;13.18;56.98
52249;BME280;38541;48.130;8.378;2023-05-24T10:54:11;93035.91;;;12.85;56.76
52249;BME280;38541;48.130;8.378;2023-05-24T10:56:39;93045.13;;;12.88;57.67
52249;BME280;38541;48.130;8.378;2023-05-24T10:59:07;93040.91;;;12.92;57.32
52249;BME280;38541;48.130;8.378;2023-05-24T11:01:34;93041.44;;;12.99;58.60
52249;BME280;38541;48.130;8.378;2023-05-24T11:04:11;93041.38;;;13.09;57.53
52249;BME280;38541;48.130;8.378;2023-05-24T11:06:48;93043.75;;;13.11;57.14
52249;BME280;38541;48.130;8.378;2023-05-24T11:09:16;93044.03;;;13.04;57.33
52249;BME280;38541;48.130;8.378;2023-05-24T11:11:43;93048.75;;;13.12;58.31
52249;BME280;38541;48.130;8.378;2023-05-24T11:14:12;93041.91;;;13.06;58.21
52249;BME280;38541;48.130;8.378;2023-05-24T11:16:39;93038.41;;;13.26;57.54
52249;BME280;38541;48.130;8.378;2023-05-24T11:19:19;93044.16;;;13.39;57.63
52249;BME280;38541;48.130;8.378;2023-05-24T11:21:51;93045.41;;;13.57;57.06
52249;BME280;38541;48.130;8.378;2023-05-24T11:24:19;93040.34;;;13.66;56.58
52249;BME280;38541;48.130;8.378;2023-05-24T11:26:48;93044.25;;;13.74;56.58
52249;BME280;38541;48.130;8.378;2023-05-24T11:29:15;93038.50;;;13.66;56.96
52249;BME280;38541;48.130;8.378;2023-05-24T11:31:56;93037.00;;;13.55;57.82
52249;BME280;38541;48.130;8.378;2023-05-24T11:34:23;93040.66;;;13.54;58.13
52249;BME280;38541;48.130;8.378;2023-05-24T11:36:52;93039.13;;;13.43;56.97
52249;BME280;38541;48.130;8.378;2023-05-24T11:39:20;93029.88;;;13.40;58.05
52249;BME280;38541;48.130;8.378;2023-05-24T11:41:48;93032.53;;;13.45;57.39
52249;BME280;38541;48.130;8.378;2023-05-24T11:44:17;93044.69;;;13.46;56.22
52249;BME280;38541;48.130;8.378;2023-05-24T11:46:45;93032.53;;;13.45;56.59
52249;BME280;38541;48.130;8.378;2023-05-24T11:49:13;93032.47;;;13.55;57.07
52249;BME280;38541;48.130;8.378;2023-05-24T11:51:40;93028.81;;;13.51;56.66
52249;BME280;38541;48.130;8.378;2023-05-24T11:54:08;93029.88;;;13.50;56.87
52249;BME280;38541;48.130;8.378;2023-05-24T11:56:35;93029.13;;;13.34;56.59
52249;BME280;38541;48.130;8.378;2023-05-24T11:59:08;93022.41;;;13.07;56.89
52249;BME280;38541;48.130;8.378;2023-05-24T12:01:35;93020.38;;;12.83;57.31
52249;BME280;38541;48.130;8.378;2023-05-24T12:04:01;93020.91;;;12.86;57.82
52249;BME280;38541;48.130;8.378;2023-05-24T12:06:39;93019.78;;;13.02;58.10
52249;BME280;38541;48.130;8.378;2023-05-24T12:09:07;93018.19;;;13.06;58.79
52249;BME280;38541;48.130;8.378;2023-05-24T12:11:38;93018.16;;;13.11;57.78
52249;BME280;38541;48.130;8.378;2023-05-24T12:14:06;93014.44;;;13.12;58.33
52249;BME280;38541;48.130;8.378;2023-05-24T12:16:34;93016.66;;;12.90;58.21
52249;BME280;38541;48.130;8.378;2023-05-24T12:19:02;93016.38;;;12.96;59.17
52249;BME280;38541;48.130;8.378;2023-05-24T12:21:40;93007.56;;;13.17;59.22
52249;BME280;38541;48.130;8.378;2023-05-24T12:24:07;93004.88;;;13.27;58.95
52249;BME280;38541;48.130;8.378;2023-05-24T12:26:36;93005.88;;;13.41;57.84
52249;BME280;38541;48.130;8.378;2023-05-24T12:29:03;93003.91;;;13.68;58.13
52249;BME280;38541;48.130;8.378;2023-05-24T12:31:30;92999.09;;;13.75;57.49
52249;BME280;38541;48.130;8.378;2023-05-24T12:33:56;92994.28;;;13.82;56.38
52249;BME280;38541;48.130;8.378;2023-05-24T12:36:23;92990.25;;;13.90;55.64
52249;BME280;38541;48.130;8.378;2023-05-24T12:38:50;92987.66;;;13.85;56.15
52249;BME280;38541;48.130;8.378;2023-05-24T12:41:17;92986.63;;;14.16;55.93
52249;BME280;38541;48.130;8.378;2023-05-24T12:43:43;92991.03;;;14.25;55.38
52249;BME280;38541;48.130;8.378;2023-05-24T12:46:10;92984.13;;;14.30;55.69
52249;BME280;38541;48.130;8.378;2023-05-24T12:48:38;92983.97;;;14.45;55.16
52249;BME280;38541;48.130;8.378;2023-05-24T12:51:04;92981.31;;;14.45;53.87
52249;BME280;38541;48.130;8.378;2023-05-24T12:53:33;92976.44;;;14.58;53.27
52249;BME280;38541;48.130;8.378;2023-05-24T12:55:59;92976.53;;;14.77;54.49
52249;BME280;38541;48.130;8.378;2023-05-24T12:58:26;92977.25;;;14.82;54.21
52249;BME280;38541;48.130;8.378;2023-05-24T13:00:53;92986.53;;;15.04;53.84
52249;BME280;38541;48.130;8.378;2023-05-24T13:03:20;92983.34;;;15.07;53.46
52249;BME280;38541;48.130;8.378;2023-05-24T13:05:46;92982.31;;;15.03;52.23
52249;BME280;38541;48.130;8.378;2023-05-24T13:08:13;92982.38;;;14.98;52.61
52249;BME280;38541;48.130;8.378;2023-05-24T13:10:40;92986.06;;;15.40;52.93
52249;BME280;38541;48.130;8.378;2023-05-24T13:13:06;92984.53;;;16.44;51.08
52249;BME280;38541;48.130;8.378;2023-05-24T13:15:33;92978.38;;;16.63;48.23
52249;BME280;38541;48.130;8.378;2023-05-24T13:18:00;92972.88;;;17.52;47.94